Data for 11/25/2005

Time Sea-Level Adjusted Pressure Absolute Pressure Temperature Relative Humidity Dew Point   
(mb) (inHg) (mb) (inHg) (C) (F) (%) (C) (F)
00:05 1015 29.97 844 24.92 1 33.9 48 -8.9 16
00:10 1015 29.97 844 24.92 1.5 34.6 44 -9.4 15
00:15 1015 29.97 844 24.92 1.8 35.2 46 -8.8 16.2
00:20 1015 29.97 845 24.95 1.4 34.6 45 -9.1 15.6
00:25 1015 29.97 845 24.95 2 35.7 41 -9.9 14.3
00:30 1016 30 845 24.95 2.5 36.6 42 -9.3 15.3
00:35 1016 30 845 24.95 2.3 36.2 42 -9.3 15.3
00:40 1016 30 845 24.95 1.7 35.1 45 -8.9 16
00:45 1016 30 845 24.95 1.1 33.9 47 -9 15.7
00:50 1016 30 845 24.95 0.5 32.9 50 -8.7 16.3
00:55 1016 30 845 24.95 0.3 32.5 51 -8.7 16.3
01:00 1016 30 845 24.95 -0 32 53 -8.4 16.9
01:05 1016 30 845 24.95 -0 31.9 56 -7.9 17.9
01:10 1016 30 845 24.95 0.2 32.4 58 -7 19.4
01:15 1016 30 845 24.95 0.2 32.3 58 -7.2 19
01:20 1016 30 845 24.95 -0.2 31.6 56 -8 17.7
01:25 1016 30 845 24.95 -0.6 30.9 57 -8.1 17.4
01:30 1016 30 845 24.95 -0.8 30.6 58 -8.1 17.4
01:35 1016 30 845 24.95 -0.8 30.5 58 -8.1 17.4
01:40 1016 30 845 24.95 -1 30.2 58 -8.2 17.2
01:45 1016 30 845 24.95 -0.9 30.4 57 -8.4 16.9
01:50 1016 30 845 24.95 -1.1 30.1 57 -8.5 16.6
01:55 1016 30 846 24.98 -1 30.1 56 -8.7 16.4
02:00 1016 30 846 24.98 -1.3 29.7 60 -8.1 17.4
02:05 1016 30 846 24.98 -1 30.3 58 -8.1 17.4
02:10 1016 30 846 24.98 -0.8 30.6 59 -7.8 18
02:15 1016 30 845 24.95 -1 30.2 59 -7.9 17.7
02:20 1016 30 845 24.95 -1.3 29.7 60 -8.1 17.4
02:25 1016 30 845 24.95 -1.4 29.4 59 -8.4 16.8
02:30 1016 30 845 24.95 -1.1 30 58 -8.3 17.1
02:35 1016 30 846 24.98 -1 30.2 58 -8.2 17.2
02:40 1016 30 846 24.98 -0.9 30.3 59 -7.9 17.8
02:45 1016 30 845 24.95 -1 30.3 61 -7.6 18.2
02:50 1016 30 845 24.95 -1.2 29.8 59 -8.2 17.3
02:55 1016 30 845 24.95 -1.6 29.2 60 -8.4 16.8
03:00 1016 30 845 24.95 -1.8 28.7 61 -8.4 16.8
03:05 1016 30 845 24.95 -2.2 28.1 60 -8.9 15.9
03:10 1016 30 845 24.95 -1.3 29.6 57 -8.9 16.1
03:15 1016 30 845 24.95 -1.2 29.9 56 -8.8 16.2
03:20 1016 30 845 24.95 -1.6 29.1 59 -8.6 16.5
03:25 1016 30 845 24.95 -2.1 28.2 61 -8.7 16.3
03:30 1016 30 845 24.95 -1.6 29.1 56 -9.4 15.1
03:35 1016 30 845 24.95 -1 30.2 54 -9.1 15.6
03:40 1016 30 845 24.95 -0.9 30.3 54 -9.2 15.4
03:45 1016 30 845 24.95 -1 30.3 53 -9.3 15.2
03:50 1016 30 845 24.95 -1.2 29.8 55 -9.2 15.4
03:55 1016 30 845 24.95 -1.3 29.6 55 -9.3 15.2
04:00 1016 30 845 24.95 -1.1 30 53 -9.5 15
04:05 1015 29.97 845 24.95 -0.9 30.4 54 -9 15.8
04:10 1016 30 845 24.95 -0.9 30.4 55 -8.9 16
04:15 1016 30 845 24.95 -0.8 30.6 54 -9 15.9
04:20 1016 30 845 24.95 -0.8 30.5 55 -8.7 16.3
04:25 1015 29.97 845 24.95 -1.1 30.1 56 -8.7 16.3
04:30 1015 29.97 845 24.95 -0.9 30.4 56 -8.7 16.3
04:35 1015 29.97 845 24.95 -0.7 30.7 55 -8.7 16.4
04:40 1015 29.97 845 24.95 -0.6 30.9 55 -8.6 16.5
04:45 1015 29.97 845 24.95 -0.4 31.4 53 -8.8 16.2
04:50 1015 29.97 845 24.95 -0.2 31.6 53 -8.7 16.4
04:55 1015 29.97 845 24.95 -0.5 31.2 54 -8.5 16.6
05:00 1015 29.97 844 24.92 -0.7 30.8 55 -8.7 16.4
05:05 1015 29.97 844 24.92 -0 31.9 48 -9.7 14.5
05:10 1015 29.97 844 24.92 0.4 32.7 49 -9 15.7
05:15 1015 29.97 844 24.92 0.3 32.5 50 -9.1 15.7
05:20 1015 29.97 844 24.92 0.3 32.5 50 -8.9 15.9
05:25 1015 29.97 844 24.92 0.2 32.3 50 -9 15.8
05:30 1015 29.97 844 24.92 0.1 32.2 50 -9.1 15.7
05:35 1015 29.97 844 24.92 0.2 32.3 50 -9.1 15.7
05:40 1015 29.97 844 24.92 -0.1 31.9 50 -9.2 15.5
05:45 1015 29.97 844 24.92 -0.1 31.7 51 -9 15.8
05:50 1015 29.97 844 24.92 -0.4 31.3 52 -9 15.8
05:55 1014 29.94 844 24.92 -0.9 30.3 56 -8.7 16.4
06:00 1014 29.94 844 24.92 -1.1 29.9 55 -9 15.9
06:05 1014 29.94 843 24.89 -0.8 30.6 54 -9 15.9
06:10 1014 29.94 843 24.89 -0.7 30.8 54 -8.9 16.1
06:15 1014 29.94 843 24.89 -0.8 30.6 54 -8.9 16.1
06:20 1014 29.94 843 24.89 -0.6 30.9 52 -9.2 15.4
06:25 1014 29.94 843 24.89 0 32 49 -9.5 14.9
06:30 1014 29.94 843 24.89 -0.2 31.7 51 -9 15.7
06:35 1014 29.94 843 24.89 -0.4 31.3 51 -9.2 15.4
06:40 1014 29.94 843 24.89 -0.3 31.5 51 -9.2 15.4
06:45 1014 29.94 843 24.89 -0.1 31.9 49 -9.4 15
06:50 1014 29.94 843 24.89 0.1 32.1 50 -9.2 15.4
06:55 1014 29.94 843 24.89 -0 31.9 50 -9.2 15.5
07:00 1014 29.94 843 24.89 -0.1 31.8 50 -9.4 15.2
07:05 1014 29.94 843 24.89 -0.2 31.7 50 -9.4 15
07:10 1014 29.94 843 24.89 -0.1 31.8 50 -9.4 15
07:15 1014 29.94 843 24.89 -0 31.9 49 -9.6 14.8
07:20 1014 29.94 843 24.89 0.1 32.1 49 -9.4 15.1
07:25 1014 29.94 843 24.89 -0.2 31.7 49 -9.6 14.7
07:30 1014 29.94 843 24.89 0.3 32.6 46 -10.1 13.8
07:35 1014 29.94 843 24.89 -0.1 31.9 49 -9.6 14.8
07:40 1014 29.94 843 24.89 -1.2 29.9 53 -9.6 14.8
07:45 1014 29.94 843 24.89 -1.8 28.7 56 -9.5 14.9
07:50 1014 29.94 843 24.89 -1.9 28.6 54 -10 14
07:55 1014 29.94 843 24.89 -1.1 30 51 -10 14.1
08:00 1014 29.94 843 24.89 -0.9 30.3 51 -9.7 14.5
08:05 1014 29.94 843 24.89 -0.5 31.1 48 -10.2 13.6
08:10 1013 29.91 843 24.89 0.1 32.1 45 -10.4 13.3
08:15 1013 29.91 843 24.89 0.2 32.3 46 -10.1 13.9
08:20 1013 29.91 843 24.89 0.7 33.3 44 -10 13.9
08:25 1013 29.91 843 24.89 1.2 34.1 44 -9.7 14.5
08:30 1014 29.94 843 24.89 1.2 34.2 45 -9.4 15.1
08:35 1014 29.94 843 24.89 0.9 33.7 47 -9.2 15.4
08:40 1014 29.94 843 24.89 0.8 33.5 47 -9.3 15.3
08:45 1014 29.94 843 24.89 0.7 33.2 47 -9.4 15.1
08:50 1014 29.94 843 24.89 1 33.8 47 -9.2 15.5
08:55 1014 29.94 843 24.89 0.9 33.6 49 -8.7 16.3
09:00 1014 29.94 843 24.89 0.6 33.1 47 -9.4 15
09:05 1014 29.94 843 24.89 1.5 34.6 43 -9.7 14.6
09:10 1014 29.94 843 24.89 1.7 35 45 -9 15.8
09:15 1014 29.94 843 24.89 1.6 34.8 47 -8.5 16.7
09:20 1014 29.94 843 24.89 1.7 35 48 -8.2 17.2
09:25 1014 29.94 843 24.89 1.7 35 51 -7.4 18.8
09:30 1014 29.94 843 24.89 1.4 34.5 50 -8 17.6
09:35 1014 29.94 843 24.89 1.6 35 48 -8.3 17.1
09:40 1014 29.94 843 24.89 1.7 35.1 53 -6.8 19.7
09:45 1014 29.94 843 24.89 1.3 34.4 55 -6.8 19.8
09:50 1014 29.94 843 24.89 1.1 33.9 52 -7.7 18.2
09:55 1013 29.91 843 24.89 0.9 33.7 55 -7.1 19.2
10:00 1013 29.91 843 24.89 0.9 33.7 54 -7.5 18.6
10:05 1013 29.91 843 24.89 0.8 33.5 51 -8.1 17.4
10:10 1013 29.91 843 24.89 1.3 34.3 49 -8.3 17.1
10:15 1013 29.91 842 24.86 2.2 35.9 44 -8.8 16.2
10:20 1013 29.91 842 24.86 3.4 38.1 40 -9 15.8
10:25 1013 29.91 842 24.86 4 39.2 39 -8.6 16.5
10:30 1013 29.91 842 24.86 4.3 39.7 39 -8.6 16.6
10:35 1013 29.91 842 24.86 4.8 40.6 36 -9 15.8
10:40 1013 29.91 842 24.86 5 41 38 -8.3 17
10:45 1013 29.91 842 24.86 4.3 39.8 40 -8.1 17.5
10:50 1013 29.91 842 24.86 4.6 40.3 40 -8 17.6
10:55 1013 29.91 842 24.86 5.2 41.3 36 -8.7 16.4
11:00 1013 29.91 842 24.86 6.2 43.2 34 -8.5 16.6
11:05 1013 29.91 842 24.86 6.3 43.3 35 -8.1 17.4
11:10 1012 29.88 842 24.86 5.9 42.6 36 -8 17.6
11:15 1012 29.88 841 24.83 6 42.8 35 -8.4 16.8
11:20 1012 29.88 841 24.83 7 44.6 33 -8.4 16.9
11:25 1012 29.88 841 24.83 7.5 45.4 33 -7.9 17.8
11:30 1012 29.88 841 24.83 8.1 46.6 31 -8.1 17.4
11:35 1012 29.88 841 24.83 8.2 46.7 31 -7.9 17.8
11:40 1012 29.88 841 24.83 7.7 45.8 31 -8.2 17.2
11:45 1012 29.88 841 24.83 7.2 45 32 -8.5 16.7
11:50 1011 29.85 841 24.83 7.7 45.8 31 -8.4 17
11:55 1011 29.85 841 24.83 7.9 46.2 31 -8.1 17.5
12:00 1011 29.85 841 24.83 8 46.4 33 -7.4 18.7
12:05 1011 29.85 841 24.83 7.2 44.9 35 -7.1 19.1
12:10 1011 29.85 840 24.81 6.8 44.3 35 -7.6 18.3
12:15 1011 29.85 840 24.81 6.9 44.3 37 -6.9 19.6
12:20 1011 29.85 840 24.81 6.9 44.5 36 -7.2 19
12:25 1011 29.85 840 24.81 7.4 45.3 37 -6.4 20.6
12:30 1011 29.85 840 24.81 7.7 45.8 43 -4 24.9
12:35 1011 29.85 840 24.81 6.6 43.9 45 -4.3 24.2
12:40 1011 29.85 840 24.81 6.7 44 45 -4.4 24.1
12:45 1011 29.85 840 24.81 6.7 44.1 46 -4.1 24.6
12:50 1011 29.85 840 24.81 6 42.8 50 -3.6 25.6
12:55 1011 29.85 840 24.81 5.4 41.8 50 -4.1 24.7
13:00 1010 29.83 840 24.81 5 41 50 -4.5 24
13:05 1010 29.83 839 24.78 4.7 40.5 52 -4.4 24
13:10 1010 29.83 839 24.78 4.4 40 51 -4.8 23.4
13:15 1010 29.83 839 24.78 4.4 39.9 50 -5 23
13:20 1010 29.83 839 24.78 4.7 40.4 47 -5.6 22
13:25 1010 29.83 839 24.78 4.7 40.4 46 -6.1 21.1
13:30 1010 29.83 839 24.78 4.6 40.2 46 -5.9 21.3
13:35 1010 29.83 839 24.78 4.6 40.3 46 -6 21.1
13:40 1010 29.83 839 24.78 4.7 40.5 44 -6.4 20.5
13:45 1009 29.8 839 24.78 5 40.9 43 -6.6 20
13:50 1009 29.8 838 24.75 5 41 42 -6.8 19.7
13:55 1009 29.8 838 24.75 5.2 41.4 42 -6.7 20
14:00 1009 29.8 838 24.75 5.5 41.8 41 -6.7 19.9
14:05 1009 29.8 838 24.75 5.6 42.1 42 -6.2 20.8
14:10 1009 29.8 838 24.75 5.5 41.9 42 -6.4 20.5
14:15 1009 29.8 838 24.75 5.4 41.8 43 -6.1 21.1
14:20 1009 29.8 838 24.75 5.6 42 43 -5.9 21.4
14:25 1009 29.8 838 24.75 5.7 42.2 43 -5.9 21.3
14:30 1009 29.8 838 24.75 6.1 43 41 -6.1 21.1
14:35 1009 29.8 838 24.75 6.2 43.2 42 -5.9 21.4
14:40 1009 29.8 838 24.75 6.3 43.3 41 -6.1 20.9
14:45 1009 29.8 838 24.75 6.3 43.3 41 -6 21.2
14:50 1009 29.8 838 24.75 6.2 43.2 41 -6 21.2
14:55 1009 29.8 838 24.75 6.2 43.2 41 -5.9 21.3
15:00 1009 29.8 838 24.75 5.9 42.7 43 -5.6 21.9
15:05 1009 29.8 838 24.75 5.9 42.6 44 -5.4 22.3
15:10 1009 29.8 838 24.75 5.6 42 45 -5.3 22.4
15:15 1009 29.8 838 24.75 4.9 40.8 48 -5.1 22.9
15:20 1009 29.8 838 24.75 4.6 40.3 50 -4.9 23.1
15:25 1009 29.8 838 24.75 4.7 40.4 50 -4.9 23.1
15:30 1009 29.8 838 24.75 4.8 40.6 51 -4.6 23.7
15:35 1009 29.8 838 24.75 4.5 40.2 51 -4.6 23.7
15:40 1009 29.8 838 24.75 4.8 40.6 50 -4.6 23.6
15:45 1009 29.8 838 24.75 4.8 40.7 50 -4.6 23.7
15:50 1009 29.8 838 24.75 4.3 39.8 51 -5 22.9
15:55 1009 29.8 838 24.75 4.4 39.9 52 -4.6 23.7
16:00 1009 29.8 838 24.75 4.4 40 52 -4.5 23.9
16:05 1008 29.77 838 24.75 4.4 39.9 53 -4.4 24.1
16:10 1008 29.77 838 24.75 4.4 40 50 -5.2 22.7
16:15 1008 29.77 838 24.75 4.6 40.3 51 -4.6 23.7
16:20 1008 29.77 838 24.75 4.5 40.1 53 -4.1 24.6
16:25 1008 29.77 838 24.75 4.4 40 50 -5.1 22.8
16:30 1008 29.77 837 24.72 4.5 40.2 49 -5.2 22.7
16:35 1008 29.77 837 24.72 4.6 40.3 52 -4.5 23.9
16:40 1008 29.77 837 24.72 4.3 39.8 54 -4.2 24.5
16:45 1008 29.77 837 24.72 4.2 39.6 53 -4.5 23.9
16:50 1008 29.77 837 24.72 4.3 39.7 51 -5.1 22.8
16:55 1008 29.77 837 24.72 4.4 39.9 51 -4.9 23.1
17:00 1008 29.77 837 24.72 4.6 40.3 50 -4.8 23.4
17:05 1008 29.77 837 24.72 4.7 40.4 50 -4.9 23.2
17:10 1008 29.77 837 24.72 4.6 40.3 50 -4.8 23.3
17:15 1008 29.77 837 24.72 4.5 40.2 50 -5.1 22.8
17:20 1008 29.77 837 24.72 4.6 40.2 48 -5.4 22.2
17:25 1008 29.77 837 24.72 4.9 40.8 48 -5.3 22.4
17:30 1008 29.77 837 24.72 5.1 41.2 47 -5.3 22.5
17:35 1008 29.77 837 24.72 5.6 42 46 -5.1 22.9
17:40 1008 29.77 837 24.72 5.8 42.4 45 -5.1 22.8
17:45 1008 29.77 837 24.72 5.8 42.5 47 -4.6 23.8
17:50 1007 29.74 837 24.72 5.6 42.1 47 -4.8 23.4
17:55 1008 29.77 837 24.72 5.6 42 46 -5.1 22.9
18:00 1008 29.77 837 24.72 5.6 42.1 45 -5.3 22.5
18:05 1008 29.77 837 24.72 5.7 42.2 47 -4.7 23.6
18:10 1008 29.77 837 24.72 5.5 41.9 48 -4.6 23.7
18:15 1008 29.77 837 24.72 5.2 41.4 51 -4 24.8
18:20 1008 29.77 837 24.72 5 41 51 -4.2 24.4
18:25 1008 29.77 837 24.72 4.8 40.6 54 -3.9 25
18:30 1008 29.77 837 24.72 4.5 40.1 55 -3.8 25.2
18:35 1008 29.77 837 24.72 4.4 39.8 55 -3.8 25.1
18:40 1008 29.77 837 24.72 4.3 39.7 56 -3.7 25.3
18:45 1008 29.77 837 24.72 4.1 39.4 56 -3.9 25
18:50 1008 29.77 837 24.72 3.9 39 55 -4.3 24.2
18:55 1008 29.77 837 24.72 4.1 39.4 55 -4.3 24.3
19:00 1008 29.77 837 24.72 4.3 39.8 53 -4.3 24.2
19:05 1008 29.77 837 24.72 4.6 40.2 53 -4.2 24.4
19:10 1007 29.74 837 24.72 4.6 40.2 53 -4.2 24.5
19:15 1007 29.74 837 24.72 4.7 40.5 53 -4.2 24.5
19:20 1007 29.74 837 24.72 4.5 40.1 59 -2.8 27
19:25 1007 29.74 837 24.72 4.1 39.3 60 -3.1 26.4
19:30 1007 29.74 836 24.69 4 39.1 61 -2.8 27
19:35 1007 29.74 836 24.69 3.8 38.8 59 -3.6 25.6
19:40 1007 29.74 837 24.72 3.8 38.8 56 -4.1 24.7
19:45 1007 29.74 837 24.72 3.9 39 63 -2.6 27.3
19:50 1008 29.77 837 24.72 3.7 38.7 61 -3.1 26.4
19:55 1007 29.74 837 24.72 3.6 38.4 62 -3.1 26.4
20:00 1007 29.74 837 24.72 3.5 38.3 65 -2.5 27.4
20:05 1007 29.74 837 24.72 3.3 37.9 69 -1.9 28.5
20:10 1007 29.74 837 24.72 3 37.4 68 -2.4 27.8
20:15 1007 29.74 837 24.72 3 37.4 67 -2.5 27.5
20:20 1007 29.74 836 24.69 3 37.4 73 -1.4 29.4
20:25 1007 29.74 836 24.69 2.6 36.7 79 -0.7 30.7
20:30 1007 29.74 836 24.69 2.3 36.1 78 -1.1 30
20:35 1007 29.74 836 24.69 2.3 36.2 77 -1.4 29.5
20:40 1007 29.74 836 24.69 2.4 36.3 78 -1.1 30
20:45 1007 29.74 836 24.69 2.3 36.1 81 -0.7 30.8
20:50 1007 29.74 836 24.69 2.1 35.8 81 -0.8 30.6
20:55 1007 29.74 836 24.69 2 35.5 82 -0.8 30.6
21:00 1007 29.74 836 24.69 2 35.6 85 -0.3 31.5
21:05 1007 29.74 836 24.69 1.9 35.5 87 0.1 32.1
21:10 1007 29.74 836 24.69 1.9 35.4 89 0.3 32.5
21:15 1007 29.74 836 24.69 2 35.6 89 0.5 32.8
21:20 1007 29.74 836 24.69 2 35.7 91 0.7 33.3
21:25 1007 29.74 836 24.69 1.9 35.5 91 0.7 33.2
21:30 1007 29.74 836 24.69 1.9 35.5 92 0.7 33.3
21:35 1007 29.74 836 24.69 2 35.6 92 0.9 33.5
21:40 1007 29.74 836 24.69 2 35.6 92 0.8 33.5
21:45 1007 29.74 836 24.69 2 35.7 92 0.9 33.6
21:50 1007 29.74 836 24.69 2.2 36 92 1 33.9
21:55 1007 29.74 836 24.69 2.2 36 91 0.9 33.7
22:00 1007 29.74 836 24.69 2.2 35.9 91 0.9 33.6
22:05 1007 29.74 836 24.69 2.2 35.9 91 0.8 33.5
22:10 1007 29.74 836 24.69 2.2 36 91 0.9 33.7
22:15 1007 29.74 836 24.69 2.2 36 92 1 33.8
22:20 1007 29.74 836 24.69 2.2 36 92 1 33.8
22:25 1007 29.74 836 24.69 2.3 36.2 93 1.3 34.3
22:30 1007 29.74 836 24.69 2.5 36.4 93 1.4 34.5
22:35 1007 29.74 836 24.69 2.4 36.3 92 1.3 34.3
22:40 1007 29.74 836 24.69 2.2 36 91 0.9 33.5
22:45 1007 29.74 836 24.69 2 35.6 90 0.5 32.9
22:50 1007 29.74 836 24.69 1.9 35.4 90 0.5 32.8
22:55 1007 29.74 836 24.69 1.6 34.9 91 0.3 32.6
23:00 1007 29.74 836 24.69 1.2 34.2 93 0.2 32.4
23:05 1006 29.71 836 24.69 1 33.7 95 0.2 32.4
23:10 1006 29.71 836 24.69 0.9 33.6 95 0.2 32.4
23:15 1006 29.71 835 24.66 0.7 33.2 96 0.1 32.2
23:20 1006 29.71 835 24.66 0.5 32.9 97 0 32.1
23:25 1006 29.71 835 24.66 0.5 32.8 97 0.1 32.1
23:30 1006 29.71 835 24.66 0.4 32.7 98 0.1 32.1
23:35 1006 29.71 835 24.66 0.4 32.7 98 0.1 32.1
23:40 1006 29.71 835 24.66 0.4 32.7 98 0.1 32.2
23:45 1006 29.71 835 24.66 0.4 32.6 98 0.1 32.2
23:50 1006 29.71 835 24.66 0.5 32.9 98 0.2 32.4
23:55 1006 29.71 835 24.66 0.5 32.9 98 0.2 32.4
24:00 1006 29.71 835 24.66 0.5 32.9 98 0.2 32.4